createdAt,value
2022-09-23T00:01:10.589Z,2.30
2022-09-23T00:03:41.437Z,3.20
2022-09-23T00:06:11.088Z,1.73
2022-09-23T00:08:38.693Z,2.83
2022-09-23T00:11:24.301Z,2.22
2022-09-23T00:13:53.619Z,2.20
2022-09-23T00:16:24.100Z,1.75
2022-09-23T00:18:51.000Z,3.10
2022-09-23T00:21:19.144Z,2.72
2022-09-23T00:23:46.293Z,1.85
2022-09-23T00:26:16.723Z,1.88
2022-09-23T00:28:43.587Z,2.42
2022-09-23T00:31:16.505Z,1.83
2022-09-23T00:33:43.621Z,3.50
2022-09-23T00:36:12.392Z,1.70
2022-09-23T00:38:39.232Z,2.67
2022-09-23T00:41:06.431Z,3.03
2022-09-23T00:43:53.121Z,1.98
2022-09-23T00:46:35.304Z,2.50
2022-09-23T00:49:07.693Z,2.83
2022-09-23T00:51:39.702Z,2.30
2022-09-23T00:54:07.734Z,3.50
2022-09-23T00:56:35.644Z,2.33
2022-09-23T00:59:03.092Z,2.60
2022-09-23T01:01:29.941Z,2.67
2022-09-23T01:03:58.092Z,2.08
2022-09-23T01:06:25.292Z,3.63
2022-09-23T01:08:52.531Z,2.50
2022-09-23T01:11:38.027Z,2.25
2022-09-23T01:14:35.176Z,1.42
2022-09-23T01:17:20.941Z,2.08
2022-09-23T01:20:24.348Z,2.05
2022-09-23T01:23:12.200Z,2.03
2022-09-23T01:25:57.657Z,2.20
2022-09-23T01:28:40.831Z,2.15
2022-09-23T01:31:39.390Z,2.17
2022-09-23T01:34:26.562Z,4.50
2022-09-23T01:37:11.520Z,2.40
2022-09-23T01:39:52.680Z,3.78
2022-09-23T01:42:27.117Z,2.63
2022-09-23T01:45:06.054Z,1.65
2022-09-23T01:47:42.312Z,1.75
2022-09-23T01:50:42.244Z,2.97
2022-09-23T01:53:33.382Z,4.97
2022-09-23T01:56:05.172Z,1.63
2022-09-23T01:58:54.311Z,1.50
2022-09-23T02:01:37.798Z,1.65
2022-09-23T02:04:09.017Z,2.28
2022-09-23T02:06:49.143Z,2.30
2022-09-23T02:09:20.116Z,2.05
2022-09-23T02:11:49.037Z,1.57
2022-09-23T02:14:31.473Z,1.63
2022-09-23T02:17:05.882Z,1.60
2022-09-23T02:19:47.835Z,2.08
2022-09-23T02:22:27.804Z,3.30
2022-09-23T02:24:57.411Z,3.35
2022-09-23T02:27:37.121Z,3.85
2022-09-23T02:30:13.540Z,1.60
2022-09-23T02:32:54.164Z,2.55
2022-09-23T02:35:33.775Z,1.95
2022-09-23T02:38:20.430Z,1.55
2022-09-23T02:40:58.689Z,1.52
2022-09-23T02:43:36.557Z,1.70
2022-09-23T02:46:06.012Z,1.50
2022-09-23T02:48:43.346Z,1.88
2022-09-23T02:51:10.406Z,1.52
2022-09-23T02:53:37.722Z,2.25
2022-09-23T02:56:19.651Z,2.35
2022-09-23T02:58:51.845Z,3.55
2022-09-23T03:01:32.752Z,5.00
2022-09-23T03:04:16.307Z,3.33
2022-09-23T03:06:57.113Z,2.63
2022-09-23T03:09:32.382Z,2.95
2022-09-23T03:12:11.119Z,2.25
2022-09-23T03:14:54.296Z,3.83
2022-09-23T03:17:29.932Z,2.80
2022-09-23T03:20:07.196Z,3.22
2022-09-23T03:22:40.669Z,1.83
2022-09-23T03:25:12.898Z,4.72
2022-09-23T03:27:42.456Z,2.92
2022-09-23T03:30:10.598Z,2.15
2022-09-23T03:32:39.269Z,3.22
2022-09-23T03:35:06.814Z,3.45
2022-09-23T03:37:39.320Z,1.80
2022-09-23T03:40:18.020Z,4.85
2022-09-23T03:42:46.551Z,2.20
2022-09-23T03:45:18.453Z,2.90
2022-09-23T03:47:45.281Z,2.45
2022-09-23T03:50:19.143Z,3.35
2022-09-23T03:52:46.404Z,2.47
2022-09-23T03:55:13.423Z,4.22
2022-09-23T03:57:40.151Z,3.20
2022-09-23T04:00:07.919Z,3.40
2022-09-23T04:02:41.544Z,2.03
2022-09-23T04:05:10.281Z,2.60
2022-09-23T04:07:37.088Z,2.53
2022-09-23T04:10:05.083Z,2.03
2022-09-23T04:12:31.787Z,2.25
2022-09-23T04:14:58.699Z,3.63
2022-09-23T04:17:25.409Z,2.53
2022-09-23T04:19:52.119Z,2.08
2022-09-23T04:22:18.936Z,2.50
2022-09-23T04:24:45.720Z,2.83
2022-09-23T04:27:12.403Z,3.78
2022-09-23T04:29:39.101Z,3.63
2022-09-23T04:32:05.800Z,4.10
2022-09-23T04:34:32.497Z,2.25
2022-09-23T04:36:59.193Z,2.63
2022-09-23T04:39:25.913Z,2.45
2022-09-23T04:41:52.643Z,3.08
2022-09-23T04:44:21.098Z,3.03
2022-09-23T04:46:48.322Z,3.42
2022-09-23T04:49:16.053Z,2.65
2022-09-23T04:51:43.636Z,3.17
2022-09-23T04:54:12.170Z,3.17
2022-09-23T04:56:39.786Z,3.25
2022-09-23T04:59:07.563Z,3.63
2022-09-23T05:01:36.481Z,2.60
2022-09-23T05:04:06.627Z,2.85
2022-09-23T05:06:34.956Z,3.40
2022-09-23T05:09:03.063Z,4.65
2022-09-23T05:11:31.489Z,6.13
2022-09-23T05:13:58.834Z,3.65
2022-09-23T05:16:27.082Z,5.30
2022-09-23T05:18:54.594Z,4.22
2022-09-23T05:21:23.548Z,3.90
2022-09-23T05:23:55.606Z,5.35
2022-09-23T05:26:25.520Z,6.93
2022-09-23T05:28:53.910Z,7.45
2022-09-23T05:31:22.990Z,9.18
2022-09-23T05:34:02.349Z,6.72
2022-09-23T05:36:36.965Z,7.53
2022-09-23T05:39:05.701Z,7.28
2022-09-23T05:41:33.822Z,6.97
2022-09-23T05:44:00.852Z,4.80
2022-09-23T05:46:29.527Z,6.28
2022-09-23T05:49:02.061Z,7.18
2022-09-23T05:51:31.289Z,5.32
2022-09-23T05:53:59.909Z,6.45
2022-09-23T05:56:28.045Z,6.28
2022-09-23T05:58:57.153Z,9.15
2022-09-23T06:01:26.661Z,5.22
2022-09-23T06:03:55.450Z,7.75
2022-09-23T06:06:30.710Z,5.03
2022-09-23T06:08:59.311Z,6.50
2022-09-23T06:11:29.237Z,4.68
2022-09-23T06:14:00.983Z,4.43
2022-09-23T06:16:29.320Z,7.57
2022-09-23T06:18:56.175Z,6.78
2022-09-23T06:21:22.889Z,9.25
2022-09-23T06:23:52.136Z,5.45
2022-09-23T06:26:21.000Z,5.07
2022-09-23T06:28:48.333Z,5.13
2022-09-23T06:31:16.391Z,7.65
2022-09-23T06:33:44.930Z,4.25
2022-09-23T06:36:14.795Z,6.22
2022-09-23T06:38:49.258Z,5.45
2022-09-23T06:41:16.438Z,7.55
2022-09-23T06:43:43.205Z,5.10
2022-09-23T06:46:15.005Z,5.63
2022-09-23T06:48:46.166Z,4.22
2022-09-23T06:51:20.327Z,4.30
2022-09-23T06:53:48.364Z,4.65
2022-09-23T06:56:17.268Z,2.80
2022-09-23T06:58:44.031Z,4.13
2022-09-23T07:01:15.992Z,3.20
2022-09-23T07:03:43.843Z,4.30
2022-09-23T07:06:11.165Z,4.80
2022-09-23T07:08:38.061Z,3.33
2022-09-23T07:11:07.034Z,7.13
2022-09-23T07:13:34.048Z,2.97
2022-09-23T07:16:02.184Z,3.80
2022-09-23T07:18:36.836Z,2.83
2022-09-23T07:21:15.827Z,4.78
2022-09-23T07:23:47.655Z,4.07
2022-09-23T07:28:41.619Z,4.53
2022-09-23T07:31:13.908Z,4.15
2022-09-23T07:33:44.100Z,7.00
2022-09-23T07:36:14.329Z,5.55
2022-09-23T07:38:45.165Z,4.82
2022-09-23T07:41:14.861Z,3.20
2022-09-23T07:43:41.706Z,7.70
2022-09-23T07:46:11.889Z,4.18
2022-09-23T07:48:39.308Z,4.22
2022-09-23T07:51:08.211Z,4.75
2022-09-23T07:53:35.007Z,4.13
2022-09-23T07:56:04.545Z,7.00
2022-09-23T07:58:31.261Z,5.70
2022-09-23T08:01:06.930Z,4.15
2022-09-23T08:03:33.844Z,5.40
2022-09-23T08:06:12.382Z,6.60
2022-09-23T08:08:43.327Z,4.28
2022-09-23T08:11:12.126Z,5.57
2022-09-23T08:13:38.934Z,4.63
2022-09-23T08:16:06.468Z,4.38
2022-09-23T08:18:33.902Z,7.93
2022-09-23T08:21:01.162Z,6.68
2022-09-23T08:23:28.003Z,5.43
2022-09-23T08:26:00.117Z,4.78
2022-09-23T08:28:27.849Z,5.72
2022-09-23T08:30:55.438Z,5.22
2022-09-23T08:33:23.830Z,3.60
2022-09-23T08:35:52.105Z,4.95
2022-09-23T08:38:19.898Z,3.90
2022-09-23T08:40:49.488Z,4.68
2022-09-23T08:43:31.228Z,3.92
2022-09-23T08:48:40.689Z,3.72
2022-09-23T08:51:12.707Z,4.70
2022-09-23T08:53:39.441Z,3.60
2022-09-23T08:56:13.194Z,2.28
2022-09-23T08:58:51.603Z,3.65
2022-09-23T09:01:49.589Z,4.43
2022-09-23T09:04:28.528Z,2.90
2022-09-23T09:07:31.804Z,3.25
2022-09-23T09:10:21.258Z,2.38
2022-09-23T09:12:50.776Z,2.35
2022-09-23T09:15:24.848Z,3.65
2022-09-23T09:18:18.428Z,3.58
2022-09-23T09:20:59.532Z,3.78
2022-09-23T09:23:35.322Z,3.30
2022-09-23T09:26:02.915Z,2.53
2022-09-23T09:28:42.074Z,4.70
2022-09-23T09:31:42.750Z,3.60
2022-09-23T09:34:32.649Z,4.32
2022-09-23T09:37:07.694Z,5.03
2022-09-23T09:39:36.256Z,2.65
2022-09-23T09:42:04.708Z,3.38
2022-09-23T09:44:37.024Z,5.97
2022-09-23T09:47:19.108Z,5.10
2022-09-23T09:49:53.908Z,4.70
2022-09-23T09:52:22.588Z,3.05
2022-09-23T09:54:51.011Z,2.83
2022-09-23T09:57:35.124Z,5.03
2022-09-23T10:00:21.477Z,3.15
2022-09-23T10:03:01.718Z,3.40
2022-09-23T10:05:33.867Z,3.22
2022-09-23T10:08:18.544Z,4.43
2022-09-23T10:10:58.996Z,3.65
2022-09-23T10:13:27.407Z,2.95
2022-09-23T10:15:55.086Z,3.63
2022-09-23T10:18:36.031Z,4.18
2022-09-23T10:21:12.120Z,5.05
2022-09-23T10:23:42.430Z,3.83
2022-09-23T10:26:12.073Z,2.28
2022-09-23T10:28:46.182Z,3.28
2022-09-23T10:31:32.177Z,2.13
2022-09-23T10:34:20.712Z,4.40
2022-09-23T10:37:09.654Z,4.50
2022-09-23T10:39:54.971Z,1.88
2022-09-23T10:43:04.908Z,3.47
2022-09-23T10:45:57.781Z,2.28
2022-09-23T10:48:35.877Z,4.60
2022-09-23T10:51:14.369Z,4.60
2022-09-23T10:54:00.333Z,2.97
2022-09-23T10:56:33.265Z,2.15
2022-09-23T10:59:35.957Z,1.83
2022-09-23T11:02:42.153Z,1.85
2022-09-23T11:05:28.799Z,2.60
2022-09-23T11:08:27.509Z,3.13
2022-09-23T11:11:08.864Z,1.83
2022-09-23T11:17:08.266Z,2.13
2022-09-23T11:19:45.921Z,2.72
2022-09-23T11:22:36.170Z,2.47
2022-09-23T11:25:02.897Z,3.70
2022-09-23T11:27:35.709Z,3.00
2022-09-23T11:30:08.381Z,2.78
2022-09-23T11:33:05.202Z,2.85
2022-09-23T11:35:48.506Z,2.15
2022-09-23T11:38:25.948Z,2.45
2022-09-23T11:41:02.749Z,4.38
2022-09-23T11:43:36.377Z,3.00
2022-09-23T11:46:28.724Z,2.70
2022-09-23T11:49:07.473Z,1.60
2022-09-23T11:51:49.182Z,3.40
2022-09-23T11:54:26.144Z,1.50
2022-09-23T11:56:58.717Z,1.50
2022-09-23T12:03:03.705Z,2.35
2022-09-23T12:05:44.438Z,4.18
2022-09-23T12:08:22.411Z,1.60
2022-09-23T12:11:06.522Z,1.58
2022-09-23T12:13:52.374Z,2.97
2022-09-23T12:16:30.817Z,2.05
2022-09-23T12:19:19.424Z,3.53
2022-09-23T12:21:59.347Z,1.88
2022-09-23T12:24:46.288Z,2.10
2022-09-23T12:27:37.876Z,1.38
2022-09-23T12:30:26.556Z,1.70
2022-09-23T12:33:06.988Z,2.88
2022-09-23T12:35:41.321Z,1.53
2022-09-23T12:38:30.843Z,3.50
2022-09-23T12:40:57.763Z,1.60
2022-09-23T12:43:34.441Z,3.13
2022-09-23T12:46:23.540Z,3.78
2022-09-23T12:48:59.936Z,1.83
2022-09-23T12:51:29.295Z,2.67
2022-09-23T12:54:05.115Z,2.53
2022-09-23T12:56:37.596Z,2.22
2022-09-23T12:59:16.544Z,1.75
2022-09-23T13:01:44.426Z,1.88
2022-09-23T13:04:49.882Z,11.38
2022-09-23T13:07:22.734Z,3.25
2022-09-23T13:09:52.869Z,2.35
2022-09-23T13:12:32.460Z,2.47
2022-09-23T13:15:03.653Z,2.10
2022-09-23T13:20:36.546Z,1.83
2022-09-23T13:23:20.284Z,3.95
2022-09-23T13:25:48.109Z,3.17
2022-09-23T13:28:34.096Z,2.70
2022-09-23T13:31:14.824Z,1.70
2022-09-23T13:33:54.501Z,3.40
2022-09-23T13:36:21.256Z,1.70
2022-09-23T13:38:48.345Z,2.60
2022-09-23T13:41:25.139Z,2.97
2022-09-23T13:43:58.583Z,6.28
2022-09-23T13:46:34.244Z,1.60
2022-09-23T13:49:01.152Z,2.97
2022-09-23T13:51:33.558Z,3.45
2022-09-23T13:54:03.613Z,2.35
2022-09-23T13:56:32.948Z,2.50
2022-09-23T13:59:26.324Z,2.72
2022-09-23T14:02:20.033Z,2.83
2022-09-23T14:04:47.147Z,2.58
2022-09-23T14:07:16.594Z,2.92
2022-09-23T14:09:47.213Z,1.35
2022-09-23T14:12:15.034Z,1.65
2022-09-23T14:14:43.295Z,1.73
2022-09-23T14:17:16.785Z,2.90
2022-09-23T14:19:44.053Z,7.03
2022-09-23T14:22:28.907Z,1.92
2022-09-23T14:24:57.311Z,2.42
2022-09-23T14:27:32.309Z,1.92
2022-09-23T14:30:02.188Z,2.85
2022-09-23T14:32:30.065Z,2.20
2022-09-23T14:35:00.086Z,2.00
2022-09-23T14:37:57.569Z,2.20
2022-09-23T14:40:29.081Z,5.65
2022-09-23T14:43:14.569Z,3.53
2022-09-23T14:45:45.310Z,2.35
2022-09-23T14:48:18.880Z,2.33
2022-09-23T14:50:54.319Z,2.00
2022-09-23T14:53:23.860Z,2.10
2022-09-23T14:56:06.664Z,1.95
2022-09-23T14:58:57.311Z,2.92
2022-09-23T15:01:35.550Z,2.50
2022-09-23T15:04:37.747Z,3.75
2022-09-23T15:07:16.797Z,3.03
2022-09-23T15:09:45.368Z,5.07
2022-09-23T15:12:15.213Z,1.70
2022-09-23T15:14:46.577Z,3.00
2022-09-23T15:17:34.715Z,2.75
2022-09-23T15:20:05.804Z,1.98
2022-09-23T15:25:40.158Z,2.25
2022-09-23T15:28:12.738Z,2.85
2022-09-23T15:30:39.754Z,1.85
2022-09-23T15:33:06.663Z,4.75
2022-09-23T15:35:33.585Z,2.75
2022-09-23T15:38:02.174Z,2.30
2022-09-23T15:40:33.292Z,2.42
2022-09-23T15:43:27.197Z,2.03
2022-09-23T15:45:57.580Z,3.40
2022-09-23T15:48:57.819Z,3.20
2022-09-23T15:51:26.668Z,5.97
2022-09-23T15:53:55.192Z,4.15
2022-09-23T15:56:23.377Z,4.55
2022-09-23T15:58:51.110Z,5.18
2022-09-23T16:01:23.786Z,5.07
2022-09-23T16:03:50.890Z,4.13
2022-09-23T16:06:18.015Z,7.35
2022-09-23T16:08:45.274Z,5.68
2022-09-23T16:11:20.389Z,5.88
2022-09-23T16:13:48.060Z,5.72
2022-09-23T16:16:15.390Z,5.63
2022-09-23T16:18:43.834Z,5.85
2022-09-23T16:21:16.256Z,6.60
2022-09-23T16:23:47.358Z,4.32
2022-09-23T16:26:29.544Z,4.88
2022-09-23T16:28:58.105Z,5.72
2022-09-23T16:31:26.910Z,3.92
2022-09-23T16:33:54.175Z,4.80
2022-09-23T16:36:33.144Z,5.63
2022-09-23T16:39:05.257Z,4.95
2022-09-23T16:41:34.099Z,4.40
2022-09-23T16:44:02.648Z,5.60
2022-09-23T16:46:31.591Z,5.53
2022-09-23T16:49:00.401Z,3.17
2022-09-23T16:51:30.715Z,5.63
2022-09-23T16:53:59.488Z,5.88
2022-09-23T16:56:29.210Z,5.68
2022-09-23T16:58:56.906Z,4.35
2022-09-23T17:01:45.450Z,6.03
2022-09-23T17:04:14.170Z,3.20
2022-09-23T17:06:51.948Z,3.60
2022-09-23T17:09:20.706Z,3.22
2022-09-23T17:11:58.714Z,4.00
2022-09-23T17:14:26.067Z,3.17
2022-09-23T17:16:53.104Z,4.13
2022-09-23T17:19:20.020Z,4.45
2022-09-23T17:21:46.854Z,4.50
2022-09-23T17:24:13.906Z,5.20
2022-09-23T17:26:41.001Z,4.97
2022-09-23T17:29:10.130Z,8.45
2022-09-23T17:31:36.851Z,7.47
2022-09-23T17:34:03.660Z,9.65
2022-09-23T17:36:30.387Z,8.18
2022-09-23T17:38:57.158Z,9.02
2022-09-23T17:41:24.275Z,10.55
2022-09-23T17:43:56.616Z,10.20
2022-09-23T17:46:23.809Z,9.90
2022-09-23T17:48:55.700Z,12.93
2022-09-23T17:51:24.015Z,8.25
2022-09-23T17:53:51.322Z,10.15
2022-09-23T17:56:24.977Z,12.07
2022-09-23T17:58:53.411Z,9.18
2022-09-23T18:01:25.103Z,9.00
2022-09-23T18:03:56.634Z,11.73
2022-09-23T18:06:25.025Z,11.00
2022-09-23T18:08:52.916Z,11.90
2022-09-23T18:11:30.705Z,11.57
2022-09-23T18:14:00.356Z,13.02
2022-09-23T18:16:34.114Z,10.50
2022-09-23T18:19:02.096Z,11.80
2022-09-23T18:21:37.348Z,9.90
2022-09-23T18:24:28.530Z,10.98
2022-09-23T18:26:51.273Z,12.70
2022-09-23T18:29:18.536Z,11.85
2022-09-23T18:31:47.396Z,9.18
2022-09-23T18:34:18.981Z,11.90
2022-09-23T18:39:12.794Z,14.50
2022-09-23T18:41:40.635Z,15.77
2022-09-23T18:44:07.438Z,13.00
2022-09-23T18:46:34.281Z,13.90
2022-09-23T18:49:19.873Z,14.65
2022-09-23T18:51:57.210Z,15.02
2022-09-23T18:54:26.052Z,11.93
2022-09-23T18:56:52.895Z,11.10
2022-09-23T18:59:23.770Z,15.13
2022-09-23T19:01:51.050Z,14.70
2022-09-23T19:04:20.189Z,14.18
2022-09-23T19:06:47.699Z,16.52
2022-09-23T19:09:15.761Z,15.15
2022-09-23T19:11:42.902Z,16.40
2022-09-23T19:14:11.426Z,19.73
2022-09-23T19:16:40.140Z,17.88
2022-09-23T19:19:07.551Z,20.60
2022-09-23T19:21:34.852Z,24.40
2022-09-23T19:24:07.640Z,26.23
2022-09-23T19:26:40.451Z,24.10
2022-09-23T19:29:08.718Z,32.45
2022-09-23T19:31:40.403Z,27.35
2022-09-23T19:34:12.511Z,27.52
2022-09-23T19:36:42.141Z,28.15
2022-09-23T19:39:17.244Z,30.02
2022-09-23T19:41:44.519Z,26.38
2022-09-23T19:44:11.881Z,21.85
2022-09-23T19:46:42.844Z,27.90
2022-09-23T19:49:11.094Z,24.98
2022-09-23T19:51:41.515Z,24.30
2022-09-23T19:54:09.264Z,24.20
2022-09-23T19:56:36.389Z,27.50
2022-09-23T19:59:06.791Z,25.83
2022-09-23T20:01:34.436Z,25.88
2022-09-23T20:04:01.952Z,29.85
2022-09-23T20:06:34.117Z,24.10
2022-09-23T20:09:01.823Z,25.83
2022-09-23T20:11:29.884Z,31.33
2022-09-23T20:14:01.210Z,27.13
2022-09-23T20:16:31.994Z,32.75
2022-09-23T20:18:59.891Z,32.65
2022-09-23T20:21:28.255Z,30.00
2022-09-23T20:23:56.118Z,32.78
2022-09-23T20:26:41.761Z,29.27
2022-09-23T20:29:10.755Z,29.08
2022-09-23T20:31:40.547Z,30.52
2022-09-23T20:34:08.409Z,30.42
2022-09-23T20:36:36.269Z,26.58
2022-09-23T20:39:25.351Z,27.00
2022-09-23T20:41:53.008Z,25.15
2022-09-23T20:44:19.739Z,25.42
2022-09-23T20:46:48.854Z,24.30
2022-09-23T20:49:17.186Z,24.65
2022-09-23T20:51:44.162Z,25.42
2022-09-23T20:54:12.151Z,23.70
2022-09-23T20:56:39.118Z,24.73
2022-09-23T20:59:06.041Z,21.88
2022-09-23T21:01:36.946Z,20.15
2022-09-23T21:04:05.874Z,23.40
2022-09-23T21:06:35.430Z,20.25
2022-09-23T21:09:02.685Z,21.40
2022-09-23T21:11:30.013Z,19.48
2022-09-23T21:13:58.680Z,20.38
2022-09-23T21:16:25.887Z,16.00
2022-09-23T21:18:52.896Z,18.80
2022-09-23T21:21:22.141Z,17.70
2022-09-23T21:23:50.134Z,16.92
2022-09-23T21:26:20.081Z,16.55
2022-09-23T21:28:48.955Z,15.10
2022-09-23T21:31:25.347Z,18.38
2022-09-23T21:34:00.367Z,18.92
2022-09-23T21:36:32.692Z,15.07
2022-09-23T21:39:01.716Z,15.68
2022-09-23T21:41:28.553Z,13.95
2022-09-23T21:43:56.294Z,11.48
2022-09-23T21:46:23.679Z,12.88
2022-09-23T21:48:53.660Z,11.15
2022-09-23T21:51:23.189Z,11.95
2022-09-23T21:53:50.057Z,11.18
2022-09-23T21:56:21.019Z,13.35
2022-09-23T21:58:48.149Z,11.70
2022-09-23T22:01:20.572Z,10.32
2022-09-23T22:03:56.461Z,11.48
2022-09-23T22:06:26.967Z,10.50
2022-09-23T22:08:55.712Z,12.38
2022-09-23T22:11:42.353Z,8.02
2022-09-23T22:14:11.628Z,8.75
2022-09-23T22:16:39.312Z,8.15
2022-09-23T22:19:07.105Z,8.45
2022-09-23T22:21:36.560Z,7.70
2022-09-23T22:24:05.780Z,7.15
2022-09-23T22:26:38.622Z,8.13
2022-09-23T22:29:26.021Z,9.02
2022-09-23T22:32:11.297Z,7.28
2022-09-23T22:34:49.379Z,6.75
2022-09-23T22:37:25.469Z,8.75
2022-09-23T22:39:52.274Z,7.03
2022-09-23T22:42:21.940Z,8.50
2022-09-23T22:44:49.427Z,6.35
2022-09-23T22:47:17.897Z,7.68
2022-09-23T22:49:45.733Z,6.47
2022-09-23T22:52:12.641Z,5.57
2022-09-23T22:54:39.361Z,7.88
2022-09-23T22:57:10.222Z,6.82
2022-09-23T22:59:37.839Z,5.93
2022-09-23T23:02:06.577Z,4.80
2022-09-23T23:04:33.525Z,5.97
2022-09-23T23:07:00.232Z,5.18
2022-09-23T23:09:27.001Z,5.60
2022-09-23T23:11:53.720Z,6.45
2022-09-23T23:14:20.708Z,4.57
2022-09-23T23:16:47.621Z,5.97
2022-09-23T23:19:17.159Z,4.40
2022-09-23T23:21:45.446Z,6.63
2022-09-23T23:24:23.634Z,5.32
2022-09-23T23:26:51.383Z,7.72
2022-09-23T23:29:19.646Z,5.60
2022-09-23T23:31:47.303Z,5.57
2022-09-23T23:34:16.852Z,5.03
2022-09-23T23:36:45.658Z,5.30
2022-09-23T23:39:13.324Z,5.85
2022-09-23T23:41:41.597Z,6.78
2022-09-23T23:44:08.776Z,4.57
2022-09-23T23:46:37.205Z,4.35
2022-09-23T23:49:04.923Z,3.67
2022-09-23T23:51:31.657Z,4.18
2022-09-23T23:53:59.447Z,5.28
2022-09-23T23:56:27.037Z,5.53
2022-09-23T23:58:55.467Z,6.22
